sensor_id;sensor_type;location;lat;lon;timestamp;pressure;altitude;pressure_sealevel;temperature;humidity
10008;BME280;5043;41.766;26.204;2023-05-09T00:00:33;101249.38;;;14.52;100.00
10008;BME280;5043;41.766;26.204;2023-05-09T00:02:58;101308.00;;;14.93;100.00
10008;BME280;5043;41.766;26.204;2023-05-09T00:05:24;101302.94;;;14.90;100.00
10008;BME280;5043;41.766;26.204;2023-05-09T00:07:50;101305.97;;;14.86;100.00
10008;BME280;5043;41.766;26.204;2023-05-09T00:10:15;101322.03;;;14.84;100.00
10008;BME280;5043;41.766;26.204;2023-05-09T00:12:41;101293.66;;;14.85;100.00
10008;BME280;5043;41.766;26.204;2023-05-09T00:15:08;101323.59;;;14.87;100.00
10008;BME280;5043;41.766;26.204;2023-05-09T00:17:34;101260.72;;;14.54;100.00
10008;BME280;5043;41.766;26.204;2023-05-09T00:20:07;101328.41;;;14.82;100.00
10008;BME280;5043;41.766;26.204;2023-05-09T00:22:40;101321.53;;;14.90;100.00
10008;BME280;5043;41.766;26.204;2023-05-09T00:25:09;101320.72;;;14.79;100.00
10008;BME280;5043;41.766;26.204;2023-05-09T00:27:35;101262.53;;;14.65;100.00
10008;BME280;5043;41.766;26.204;2023-05-09T00:30:01;101321.31;;;14.82;100.00
10008;BME280;5043;41.766;26.204;2023-05-09T00:32:27;101311.97;;;14.99;100.00
10008;BME280;5043;41.766;26.204;2023-05-09T00:34:54;101313.69;;;14.89;100.00
10008;BME280;5043;41.766;26.204;2023-05-09T00:37:19;101251.66;;;14.68;100.00
10008;BME280;5043;41.766;26.204;2023-05-09T00:39:46;101329.75;;;15.09;100.00
10008;BME280;5043;41.766;26.204;2023-05-09T00:42:12;101319.59;;;15.03;100.00
10008;BME280;5043;41.766;26.204;2023-05-09T00:44:37;101306.66;;;14.99;100.00
10008;BME280;5043;41.766;26.204;2023-05-09T00:47:03;101273.63;;;14.70;100.00
10008;BME280;5043;41.766;26.204;2023-05-09T00:49:28;101316.59;;;14.86;100.00
10008;BME280;5043;41.766;26.204;2023-05-09T00:51:54;101318.53;;;14.95;100.00
10008;BME280;5043;41.766;26.204;2023-05-09T00:54:21;101323.81;;;15.06;100.00
10008;BME280;5043;41.766;26.204;2023-05-09T00:56:47;101319.25;;;14.97;100.00
10008;BME280;5043;41.766;26.204;2023-05-09T00:59:12;101304.44;;;14.72;100.00
10008;BME280;5043;41.766;26.204;2023-05-09T01:01:38;101315.88;;;14.95;100.00
10008;BME280;5043;41.766;26.204;2023-05-09T01:04:04;101344.00;;;14.97;100.00
10008;BME280;5043;41.766;26.204;2023-05-09T01:06:44;101344.59;;;15.01;100.00
10008;BME280;5043;41.766;26.204;2023-05-09T01:09:17;101326.88;;;14.90;100.00
10008;BME280;5043;41.766;26.204;2023-05-09T01:12:02;101332.19;;;14.90;100.00
10008;BME280;5043;41.766;26.204;2023-05-09T01:17:10;101333.75;;;14.71;100.00
10008;BME280;5043;41.766;26.204;2023-05-09T01:20:01;101331.94;;;14.82;100.00
10008;BME280;5043;41.766;26.204;2023-05-09T01:22:32;101329.63;;;15.00;100.00
10008;BME280;5043;41.766;26.204;2023-05-09T01:28:18;101323.84;;;14.95;100.00
10008;BME280;5043;41.766;26.204;2023-05-09T01:30:50;101321.66;;;14.89;100.00
10008;BME280;5043;41.766;26.204;2023-05-09T01:33:19;101324.31;;;15.00;100.00
10008;BME280;5043;41.766;26.204;2023-05-09T01:35:57;101324.28;;;15.11;100.00
10008;BME280;5043;41.766;26.204;2023-05-09T01:38:24;101322.97;;;15.05;100.00
10008;BME280;5043;41.766;26.204;2023-05-09T01:40:53;101312.69;;;15.01;100.00
10008;BME280;5043;41.766;26.204;2023-05-09T01:43:20;101312.94;;;15.09;100.00
10008;BME280;5043;41.766;26.204;2023-05-09T01:45:48;101283.47;;;15.01;100.00
10008;BME280;5043;41.766;26.204;2023-05-09T01:48:15;101253.41;;;14.89;100.00
10008;BME280;5043;41.766;26.204;2023-05-09T01:50:43;101333.56;;;15.28;100.00
10008;BME280;5043;41.766;26.204;2023-05-09T01:53:10;101311.75;;;15.02;100.00
10008;BME280;5043;41.766;26.204;2023-05-09T01:55:36;101350.72;;;15.24;100.00
10008;BME280;5043;41.766;26.204;2023-05-09T01:58:04;101340.63;;;15.38;100.00
10008;BME280;5043;41.766;26.204;2023-05-09T02:00:34;101347.94;;;15.25;100.00
10008;BME280;5043;41.766;26.204;2023-05-09T02:03:01;101335.88;;;15.10;100.00
10008;BME280;5043;41.766;26.204;2023-05-09T02:05:29;101356.91;;;15.13;100.00
10008;BME280;5043;41.766;26.204;2023-05-09T02:07:56;101346.41;;;15.00;100.00
10008;BME280;5043;41.766;26.204;2023-05-09T02:10:23;101361.50;;;14.89;100.00
10008;BME280;5043;41.766;26.204;2023-05-09T02:12:50;101345.94;;;14.95;100.00
10008;BME280;5043;41.766;26.204;2023-05-09T02:15:16;101360.56;;;14.90;100.00
10008;BME280;5043;41.766;26.204;2023-05-09T02:17:41;101354.41;;;14.78;100.00
10008;BME280;5043;41.766;26.204;2023-05-09T02:20:07;101284.75;;;14.41;100.00
10008;BME280;5043;41.766;26.204;2023-05-09T02:22:35;101303.47;;;14.51;100.00
10008;BME280;5043;41.766;26.204;2023-05-09T02:25:01;101375.28;;;14.83;100.00
10008;BME280;5043;41.766;26.204;2023-05-09T02:27:30;101350.16;;;14.76;100.00
10008;BME280;5043;41.766;26.204;2023-05-09T02:29:57;101347.88;;;14.82;100.00
10008;BME280;5043;41.766;26.204;2023-05-09T02:32:28;101344.97;;;14.52;100.00
10008;BME280;5043;41.766;26.204;2023-05-09T02:34:55;101353.28;;;14.48;100.00
10008;BME280;5043;41.766;26.204;2023-05-09T02:37:22;101358.16;;;14.65;100.00
10008;BME280;5043;41.766;26.204;2023-05-09T02:39:48;101353.78;;;14.64;100.00
10008;BME280;5043;41.766;26.204;2023-05-09T02:42:23;101368.50;;;14.68;100.00
10008;BME280;5043;41.766;26.204;2023-05-09T02:44:53;101350.19;;;14.65;100.00
10008;BME280;5043;41.766;26.204;2023-05-09T02:47:19;101368.78;;;14.65;100.00
10008;BME280;5043;41.766;26.204;2023-05-09T02:49:45;101377.81;;;14.62;100.00
10008;BME280;5043;41.766;26.204;2023-05-09T02:52:10;101379.53;;;14.74;100.00
10008;BME280;5043;41.766;26.204;2023-05-09T02:54:37;101361.41;;;14.57;100.00
10008;BME280;5043;41.766;26.204;2023-05-09T02:57:03;101380.84;;;14.69;100.00
10008;BME280;5043;41.766;26.204;2023-05-09T02:59:29;101376.75;;;14.65;100.00
10008;BME280;5043;41.766;26.204;2023-05-09T03:01:54;101390.25;;;14.73;100.00
10008;BME280;5043;41.766;26.204;2023-05-09T03:04:20;101366.34;;;14.51;100.00
10008;BME280;5043;41.766;26.204;2023-05-09T03:06:45;101385.78;;;14.51;100.00
10008;BME280;5043;41.766;26.204;2023-05-09T03:09:11;101362.88;;;14.15;100.00
10008;BME280;5043;41.766;26.204;2023-05-09T03:11:37;101389.59;;;14.36;100.00
10008;BME280;5043;41.766;26.204;2023-05-09T03:14:03;101346.31;;;14.12;100.00
10008;BME280;5043;41.766;26.204;2023-05-09T03:16:29;101403.25;;;14.54;100.00
10008;BME280;5043;41.766;26.204;2023-05-09T03:18:55;101400.97;;;14.49;98.84
10008;BME280;5043;41.766;26.204;2023-05-09T03:21:21;101416.53;;;14.54;98.50
10008;BME280;5043;41.766;26.204;2023-05-09T03:23:46;101423.31;;;14.58;98.89
10008;BME280;5043;41.766;26.204;2023-05-09T03:26:12;101411.94;;;14.44;99.00
10008;BME280;5043;41.766;26.204;2023-05-09T03:28:39;101431.88;;;14.50;99.40
10008;BME280;5043;41.766;26.204;2023-05-09T03:31:05;101427.63;;;14.48;98.20
10008;BME280;5043;41.766;26.204;2023-05-09T03:33:31;101431.84;;;14.39;98.54
10008;BME280;5043;41.766;26.204;2023-05-09T03:35:56;101448.59;;;14.39;98.44
10008;BME280;5043;41.766;26.204;2023-05-09T03:38:22;101433.09;;;14.57;98.10
10008;BME280;5043;41.766;26.204;2023-05-09T03:40:51;101453.25;;;14.60;97.16
10008;BME280;5043;41.766;26.204;2023-05-09T03:43:17;101453.13;;;14.50;97.62
10008;BME280;5043;41.766;26.204;2023-05-09T03:45:43;101445.16;;;14.61;97.45
10008;BME280;5043;41.766;26.204;2023-05-09T03:48:09;101457.00;;;14.57;97.83
10008;BME280;5043;41.766;26.204;2023-05-09T03:50:35;101464.69;;;14.49;97.89
10008;BME280;5043;41.766;26.204;2023-05-09T03:53:01;101466.66;;;14.58;97.57
10008;BME280;5043;41.766;26.204;2023-05-09T03:55:27;101485.56;;;14.42;97.30
10008;BME280;5043;41.766;26.204;2023-05-09T03:57:53;101502.91;;;14.35;97.68
10008;BME280;5043;41.766;26.204;2023-05-09T04:00:19;101433.94;;;14.23;98.40
10008;BME280;5043;41.766;26.204;2023-05-09T04:02:46;101486.91;;;14.48;98.13
10008;BME280;5043;41.766;26.204;2023-05-09T04:05:13;101472.91;;;14.46;96.98
10008;BME280;5043;41.766;26.204;2023-05-09T04:07:38;101495.41;;;14.64;95.97
10008;BME280;5043;41.766;26.204;2023-05-09T04:10:04;101487.50;;;14.52;96.77
10008;BME280;5043;41.766;26.204;2023-05-09T04:12:30;101500.06;;;14.50;96.55
10008;BME280;5043;41.766;26.204;2023-05-09T04:14:56;101485.03;;;14.37;96.98
10008;BME280;5043;41.766;26.204;2023-05-09T04:17:21;101501.59;;;14.41;97.33
10008;BME280;5043;41.766;26.204;2023-05-09T04:19:46;101491.84;;;14.41;97.12
10008;BME280;5043;41.766;26.204;2023-05-09T04:22:12;101496.81;;;14.46;97.09
10008;BME280;5043;41.766;26.204;2023-05-09T04:24:37;101484.75;;;14.53;96.86
10008;BME280;5043;41.766;26.204;2023-05-09T04:27:03;101472.78;;;14.48;96.38
10008;BME280;5043;41.766;26.204;2023-05-09T04:29:28;101526.91;;;14.58;96.29
10008;BME280;5043;41.766;26.204;2023-05-09T04:31:54;101521.59;;;14.58;96.98
10008;BME280;5043;41.766;26.204;2023-05-09T04:34:19;101505.06;;;14.65;96.61
10008;BME280;5043;41.766;26.204;2023-05-09T04:36:45;101500.84;;;14.63;97.01
10008;BME280;5043;41.766;26.204;2023-05-09T04:39:10;101501.91;;;14.60;97.26
10008;BME280;5043;41.766;26.204;2023-05-09T04:41:37;101494.91;;;14.59;96.14
10008;BME280;5043;41.766;26.204;2023-05-09T04:44:02;101461.28;;;14.36;96.14
10008;BME280;5043;41.766;26.204;2023-05-09T04:46:28;101488.69;;;14.36;97.12
10008;BME280;5043;41.766;26.204;2023-05-09T04:48:53;101441.13;;;14.33;96.12
10008;BME280;5043;41.766;26.204;2023-05-09T04:51:19;101519.19;;;14.66;96.62
10008;BME280;5043;41.766;26.204;2023-05-09T04:53:44;101499.50;;;14.68;96.31
10008;BME280;5043;41.766;26.204;2023-05-09T04:56:10;101485.06;;;14.72;95.40
10008;BME280;5043;41.766;26.204;2023-05-09T04:58:35;101499.44;;;14.81;96.00
10008;BME280;5043;41.766;26.204;2023-05-09T05:01:04;101521.69;;;14.91;95.41
10008;BME280;5043;41.766;26.204;2023-05-09T05:03:30;101507.19;;;14.95;95.01
10008;BME280;5043;41.766;26.204;2023-05-09T05:05:55;101438.03;;;14.62;95.10
10008;BME280;5043;41.766;26.204;2023-05-09T05:08:20;101514.94;;;15.09;94.09
10008;BME280;5043;41.766;26.204;2023-05-09T05:10:46;101520.84;;;15.01;94.54
10008;BME280;5043;41.766;26.204;2023-05-09T05:13:14;101491.81;;;14.87;94.87
10008;BME280;5043;41.766;26.204;2023-05-09T05:15:40;101506.38;;;15.17;94.31
10008;BME280;5043;41.766;26.204;2023-05-09T05:18:05;101495.34;;;15.10;94.48
10008;BME280;5043;41.766;26.204;2023-05-09T05:20:31;101506.72;;;15.23;94.37
10008;BME280;5043;41.766;26.204;2023-05-09T05:22:57;101507.59;;;15.46;92.41
10008;BME280;5043;41.766;26.204;2023-05-09T05:25:24;101458.13;;;15.10;92.57
10008;BME280;5043;41.766;26.204;2023-05-09T05:27:49;101519.16;;;15.34;93.14
10008;BME280;5043;41.766;26.204;2023-05-09T05:30:15;101515.72;;;15.44;93.07
10008;BME280;5043;41.766;26.204;2023-05-09T05:32:41;101496.88;;;15.47;92.64
10008;BME280;5043;41.766;26.204;2023-05-09T05:35:08;101473.03;;;15.24;91.25
10008;BME280;5043;41.766;26.204;2023-05-09T05:37:36;101468.66;;;15.23;91.97
10008;BME280;5043;41.766;26.204;2023-05-09T05:40:03;101510.59;;;15.41;92.84
10008;BME280;5043;41.766;26.204;2023-05-09T05:42:30;101533.47;;;15.55;92.59
10008;BME280;5043;41.766;26.204;2023-05-09T05:44:56;101484.13;;;15.40;92.17
10008;BME280;5043;41.766;26.204;2023-05-09T05:47:31;101510.84;;;15.71;91.19
10008;BME280;5043;41.766;26.204;2023-05-09T05:49:58;101526.31;;;15.89;90.29
10008;BME280;5043;41.766;26.204;2023-05-09T05:52:24;101476.34;;;15.81;89.52
10008;BME280;5043;41.766;26.204;2023-05-09T05:54:51;101548.13;;;16.14;88.42
10008;BME280;5043;41.766;26.204;2023-05-09T05:57:17;101522.09;;;16.18;87.23
10008;BME280;5043;41.766;26.204;2023-05-09T05:59:42;101523.56;;;16.22;87.19
10008;BME280;5043;41.766;26.204;2023-05-09T06:02:08;101486.56;;;16.08;86.78
10008;BME280;5043;41.766;26.204;2023-05-09T06:04:34;101526.25;;;16.42;86.50
10008;BME280;5043;41.766;26.204;2023-05-09T06:06:59;101552.16;;;16.52;85.19
10008;BME280;5043;41.766;26.204;2023-05-09T06:09:25;101533.53;;;16.40;86.21
10008;BME280;5043;41.766;26.204;2023-05-09T06:11:51;101519.22;;;16.41;86.41
10008;BME280;5043;41.766;26.204;2023-05-09T06:14:17;101551.22;;;16.73;85.93
10008;BME280;5043;41.766;26.204;2023-05-09T06:16:43;101488.81;;;16.44;85.21
10008;BME280;5043;41.766;26.204;2023-05-09T06:19:09;101554.19;;;16.80;84.62
10008;BME280;5043;41.766;26.204;2023-05-09T06:21:35;101476.47;;;16.54;83.68
10008;BME280;5043;41.766;26.204;2023-05-09T06:24:01;101530.47;;;16.77;84.16
10008;BME280;5043;41.766;26.204;2023-05-09T06:26:28;101535.00;;;16.65;84.63
10008;BME280;5043;41.766;26.204;2023-05-09T06:28:54;101494.91;;;16.35;85.27
10008;BME280;5043;41.766;26.204;2023-05-09T06:31:20;101520.59;;;16.36;85.50
10008;BME280;5043;41.766;26.204;2023-05-09T06:33:46;101473.50;;;16.05;86.11
10008;BME280;5043;41.766;26.204;2023-05-09T06:36:12;101538.59;;;16.43;86.22
10008;BME280;5043;41.766;26.204;2023-05-09T06:38:38;101486.44;;;16.09;87.27
10008;BME280;5043;41.766;26.204;2023-05-09T06:41:04;101511.97;;;16.12;87.44
10008;BME280;5043;41.766;26.204;2023-05-09T06:43:29;101463.47;;;15.65;88.77
10008;BME280;5043;41.766;26.204;2023-05-09T06:45:55;101511.50;;;16.07;88.87
10008;BME280;5043;41.766;26.204;2023-05-09T06:48:20;101514.31;;;15.94;89.46
10008;BME280;5043;41.766;26.204;2023-05-09T06:50:48;101494.13;;;15.92;88.99
10008;BME280;5043;41.766;26.204;2023-05-09T06:53:13;101497.38;;;15.95;88.07
10008;BME280;5043;41.766;26.204;2023-05-09T06:55:39;101494.38;;;15.89;87.98
10008;BME280;5043;41.766;26.204;2023-05-09T06:58:05;101521.06;;;15.98;87.16
10008;BME280;5043;41.766;26.204;2023-05-09T07:00:32;101504.66;;;15.82;85.68
10008;BME280;5043;41.766;26.204;2023-05-09T07:02:58;101527.88;;;15.91;85.38
10008;BME280;5043;41.766;26.204;2023-05-09T07:05:23;101536.59;;;15.82;86.03
10008;BME280;5043;41.766;26.204;2023-05-09T07:07:50;101463.34;;;15.23;86.91
10008;BME280;5043;41.766;26.204;2023-05-09T07:10:16;101535.75;;;15.59;87.02
10008;BME280;5043;41.766;26.204;2023-05-09T07:12:43;101528.03;;;15.45;88.30
10008;BME280;5043;41.766;26.204;2023-05-09T07:15:09;101536.47;;;15.50;88.55
10008;BME280;5043;41.766;26.204;2023-05-09T07:17:35;101522.97;;;15.53;88.94
10008;BME280;5043;41.766;26.204;2023-05-09T07:20:01;101473.59;;;15.38;88.77
10008;BME280;5043;41.766;26.204;2023-05-09T07:22:28;101532.34;;;15.91;88.09
10008;BME280;5043;41.766;26.204;2023-05-09T07:24:53;101529.53;;;16.03;88.16
10008;BME280;5043;41.766;26.204;2023-05-09T07:27:19;101530.41;;;16.35;86.86
10008;BME280;5043;41.766;26.204;2023-05-09T07:29:44;101530.69;;;16.64;86.40
10008;BME280;5043;41.766;26.204;2023-05-09T07:32:10;101474.91;;;16.52;83.01
10008;BME280;5043;41.766;26.204;2023-05-09T07:34:35;101507.25;;;16.88;80.63
10008;BME280;5043;41.766;26.204;2023-05-09T07:37:02;101531.38;;;17.07;79.87
10008;BME280;5043;41.766;26.204;2023-05-09T07:39:28;101526.94;;;17.17;78.70
10008;BME280;5043;41.766;26.204;2023-05-09T07:41:54;101536.28;;;17.33;78.47
10008;BME280;5043;41.766;26.204;2023-05-09T07:44:19;101543.47;;;17.11;77.94
10008;BME280;5043;41.766;26.204;2023-05-09T07:46:44;101533.25;;;17.16;77.31
10008;BME280;5043;41.766;26.204;2023-05-09T07:49:10;101533.53;;;17.13;76.49
10008;BME280;5043;41.766;26.204;2023-05-09T07:51:36;101492.44;;;16.95;76.32
10008;BME280;5043;41.766;26.204;2023-05-09T07:54:01;101532.75;;;17.02;77.12
10008;BME280;5043;41.766;26.204;2023-05-09T07:56:27;101521.50;;;16.98;77.08
10008;BME280;5043;41.766;26.204;2023-05-09T07:58:53;101469.00;;;16.69;77.58
10008;BME280;5043;41.766;26.204;2023-05-09T08:01:18;101529.97;;;17.03;77.39
10008;BME280;5043;41.766;26.204;2023-05-09T08:03:44;101546.34;;;16.99;77.39
10008;BME280;5043;41.766;26.204;2023-05-09T08:06:09;101503.00;;;16.76;77.68
10008;BME280;5043;41.766;26.204;2023-05-09T08:08:35;101545.44;;;16.89;78.28
10008;BME280;5043;41.766;26.204;2023-05-09T08:11:01;101557.91;;;16.88;78.87
10008;BME280;5043;41.766;26.204;2023-05-09T08:13:26;101556.47;;;16.84;78.52
10008;BME280;5043;41.766;26.204;2023-05-09T08:15:52;101555.84;;;16.71;78.71
10008;BME280;5043;41.766;26.204;2023-05-09T08:18:17;101561.56;;;16.56;79.74
10008;BME280;5043;41.766;26.204;2023-05-09T08:20:43;101525.78;;;16.37;80.48
10008;BME280;5043;41.766;26.204;2023-05-09T08:23:08;101516.22;;;16.35;79.97
10008;BME280;5043;41.766;26.204;2023-05-09T08:25:34;101558.66;;;16.59;81.03
10008;BME280;5043;41.766;26.204;2023-05-09T08:28:00;101552.00;;;16.64;81.29
10008;BME280;5043;41.766;26.204;2023-05-09T08:30:26;101572.13;;;16.57;81.00
10008;BME280;5043;41.766;26.204;2023-05-09T08:32:54;101542.09;;;16.55;81.55
10008;BME280;5043;41.766;26.204;2023-05-09T08:35:20;101578.03;;;16.61;80.81
10008;BME280;5043;41.766;26.204;2023-05-09T08:37:46;101492.19;;;16.25;81.40
10008;BME280;5043;41.766;26.204;2023-05-09T08:40:12;101531.91;;;16.49;80.86
10008;BME280;5043;41.766;26.204;2023-05-09T08:42:39;101559.19;;;16.53;81.63
10008;BME280;5043;41.766;26.204;2023-05-09T08:45:15;101524.44;;;16.43;81.13
10008;BME280;5043;41.766;26.204;2023-05-09T08:47:44;101540.88;;;16.48;81.66
10008;BME280;5043;41.766;26.204;2023-05-09T08:50:10;101542.81;;;16.46;82.16
10008;BME280;5043;41.766;26.204;2023-05-09T08:52:39;101538.28;;;16.69;81.29
10008;BME280;5043;41.766;26.204;2023-05-09T08:55:05;101538.59;;;16.55;82.04
10008;BME280;5043;41.766;26.204;2023-05-09T08:57:32;101540.94;;;16.69;82.45
10008;BME280;5043;41.766;26.204;2023-05-09T08:59:59;101481.81;;;16.43;81.70
10008;BME280;5043;41.766;26.204;2023-05-09T09:02:25;101569.56;;;16.87;80.96
10008;BME280;5043;41.766;26.204;2023-05-09T09:04:50;101475.69;;;16.63;81.30
10008;BME280;5043;41.766;26.204;2023-05-09T09:07:16;101471.44;;;16.61;80.43
10008;BME280;5043;41.766;26.204;2023-05-09T09:09:46;101529.75;;;16.95;81.45
10008;BME280;5043;41.766;26.204;2023-05-09T09:12:14;101520.25;;;17.02;80.46
10008;BME280;5043;41.766;26.204;2023-05-09T09:14:47;101527.66;;;17.19;79.56
10008;BME280;5043;41.766;26.204;2023-05-09T09:17:17;101539.69;;;17.14;79.54
10008;BME280;5043;41.766;26.204;2023-05-09T09:19:44;101533.91;;;16.88;80.48
10008;BME280;5043;41.766;26.204;2023-05-09T09:22:15;101531.47;;;17.27;79.49
10008;BME280;5043;41.766;26.204;2023-05-09T09:24:42;101503.56;;;17.31;77.63
10008;BME280;5043;41.766;26.204;2023-05-09T09:27:08;101476.63;;;17.34;77.07
10008;BME280;5043;41.766;26.204;2023-05-09T09:29:34;101531.88;;;17.82;76.85
10008;BME280;5043;41.766;26.204;2023-05-09T09:32:04;101488.56;;;17.69;75.63
10008;BME280;5043;41.766;26.204;2023-05-09T09:34:29;101536.44;;;18.20;74.43
10008;BME280;5043;41.766;26.204;2023-05-09T09:36:55;101553.34;;;18.30;73.58
10008;BME280;5043;41.766;26.204;2023-05-09T09:39:20;101533.78;;;18.30;74.15
10008;BME280;5043;41.766;26.204;2023-05-09T09:41:46;101545.19;;;18.32;72.67
10008;BME280;5043;41.766;26.204;2023-05-09T09:44:17;101532.38;;;18.26;72.82
10008;BME280;5043;41.766;26.204;2023-05-09T09:46:44;101523.88;;;17.92;74.11
10008;BME280;5043;41.766;26.204;2023-05-09T09:49:11;101432.00;;;17.45;74.81
10008;BME280;5043;41.766;26.204;2023-05-09T09:51:38;101530.22;;;18.01;73.06
10008;BME280;5043;41.766;26.204;2023-05-09T09:54:06;101514.78;;;18.04;74.26
10008;BME280;5043;41.766;26.204;2023-05-09T09:56:43;101483.59;;;18.14;72.66
10008;BME280;5043;41.766;26.204;2023-05-09T09:59:11;101520.47;;;18.68;71.24
10008;BME280;5043;41.766;26.204;2023-05-09T10:01:56;101516.47;;;19.01;70.30
10008;BME280;5043;41.766;26.204;2023-05-09T10:04:22;101518.78;;;19.23;68.84
10008;BME280;5043;41.766;26.204;2023-05-09T10:06:59;101505.28;;;19.25;67.90
10008;BME280;5043;41.766;26.204;2023-05-09T10:09:26;101522.47;;;19.22;66.21
10008;BME280;5043;41.766;26.204;2023-05-09T10:11:53;101523.97;;;19.34;65.38
10008;BME280;5043;41.766;26.204;2023-05-09T10:14:21;101473.81;;;18.90;66.34
10008;BME280;5043;41.766;26.204;2023-05-09T10:16:48;101506.53;;;19.20;65.38
10008;BME280;5043;41.766;26.204;2023-05-09T10:19:25;101452.88;;;18.76;62.91
10008;BME280;5043;41.766;26.204;2023-05-09T10:21:56;101504.63;;;19.03;63.34
10008;BME280;5043;41.766;26.204;2023-05-09T10:27:21;101489.03;;;18.89;63.74
10008;BME280;5043;41.766;26.204;2023-05-09T10:30:00;101485.69;;;18.78;64.87
10008;BME280;5043;41.766;26.204;2023-05-09T10:35:09;101492.97;;;18.85;66.29
10008;BME280;5043;41.766;26.204;2023-05-09T10:37:36;101519.88;;;18.84;66.01
10008;BME280;5043;41.766;26.204;2023-05-09T10:40:03;101443.09;;;18.38;65.32
10008;BME280;5043;41.766;26.204;2023-05-09T10:42:29;101513.69;;;18.54;66.15
10008;BME280;5043;41.766;26.204;2023-05-09T10:44:56;101509.19;;;18.65;66.63
10008;BME280;5043;41.766;26.204;2023-05-09T10:47:24;101455.19;;;18.32;66.16
10008;BME280;5043;41.766;26.204;2023-05-09T10:49:51;101501.34;;;18.53;66.50
10008;BME280;5043;41.766;26.204;2023-05-09T10:52:17;101514.81;;;18.71;67.11
10008;BME280;5043;41.766;26.204;2023-05-09T10:54:57;101493.72;;;18.78;64.77
10008;BME280;5043;41.766;26.204;2023-05-09T10:57:25;101512.63;;;19.13;64.17
10008;BME280;5043;41.766;26.204;2023-05-09T10:59:51;101500.91;;;19.60;61.84
10008;BME280;5043;41.766;26.204;2023-05-09T11:02:20;101525.69;;;19.89;57.93
10008;BME280;5043;41.766;26.204;2023-05-09T11:04:45;101496.91;;;20.09;57.38
10008;BME280;5043;41.766;26.204;2023-05-09T11:07:26;101488.44;;;19.96;57.45
10008;BME280;5043;41.766;26.204;2023-05-09T11:12:32;101501.28;;;19.93;55.77
10008;BME280;5043;41.766;26.204;2023-05-09T11:15:05;101512.88;;;20.11;56.32
10008;BME280;5043;41.766;26.204;2023-05-09T11:17:37;101469.84;;;19.95;55.46
10008;BME280;5043;41.766;26.204;2023-05-09T11:20:04;101490.53;;;19.75;55.60
10008;BME280;5043;41.766;26.204;2023-05-09T11:22:39;101485.91;;;19.67;57.50
10008;BME280;5043;41.766;26.204;2023-05-09T11:25:08;101491.34;;;19.85;58.27
10008;BME280;5043;41.766;26.204;2023-05-09T11:27:48;101447.13;;;19.54;58.68
10008;BME280;5043;41.766;26.204;2023-05-09T11:30:18;101489.78;;;19.82;59.18
10008;BME280;5043;41.766;26.204;2023-05-09T11:32:52;101483.16;;;19.59;60.18
10008;BME280;5043;41.766;26.204;2023-05-09T11:35:20;101493.28;;;19.38;60.71
10008;BME280;5043;41.766;26.204;2023-05-09T11:38:05;101486.22;;;19.37;60.60
10008;BME280;5043;41.766;26.204;2023-05-09T11:40:32;101492.72;;;19.25;61.65
10008;BME280;5043;41.766;26.204;2023-05-09T11:42:59;101425.19;;;19.04;61.23
10008;BME280;5043;41.766;26.204;2023-05-09T11:45:27;101473.28;;;19.23;60.33
10008;BME280;5043;41.766;26.204;2023-05-09T11:47:54;101516.25;;;19.21;58.12
10008;BME280;5043;41.766;26.204;2023-05-09T11:50:21;101412.50;;;18.79;58.99
10008;BME280;5043;41.766;26.204;2023-05-09T11:52:48;101505.75;;;19.10;60.46
10008;BME280;5043;41.766;26.204;2023-05-09T11:55:18;101473.53;;;19.30;60.82
10008;BME280;5043;41.766;26.204;2023-05-09T11:57:51;101483.25;;;19.40;59.92
10008;BME280;5043;41.766;26.204;2023-05-09T12:00:19;101439.41;;;19.14;60.70
10008;BME280;5043;41.766;26.204;2023-05-09T12:02:46;101477.38;;;19.27;61.50
10008;BME280;5043;41.766;26.204;2023-05-09T12:05:19;101483.47;;;19.19;63.65
10008;BME280;5043;41.766;26.204;2023-05-09T12:07:46;101484.34;;;19.10;63.89
10008;BME280;5043;41.766;26.204;2023-05-09T12:10:13;101464.22;;;18.97;63.73
10008;BME280;5043;41.766;26.204;2023-05-09T12:12:49;101474.56;;;18.82;64.29
10008;BME280;5043;41.766;26.204;2023-05-09T12:15:15;101471.75;;;18.65;66.13
10008;BME280;5043;41.766;26.204;2023-05-09T12:17:42;101463.47;;;18.68;64.85
10008;BME280;5043;41.766;26.204;2023-05-09T12:20:09;101471.25;;;18.51;64.43
10008;BME280;5043;41.766;26.204;2023-05-09T12:22:35;101417.19;;;18.29;63.66
10008;BME280;5043;41.766;26.204;2023-05-09T12:25:07;101490.63;;;18.34;62.82
10008;BME280;5043;41.766;26.204;2023-05-09T12:27:34;101420.19;;;17.97;62.82
10008;BME280;5043;41.766;26.204;2023-05-09T12:30:03;101449.41;;;18.18;63.26
10008;BME280;5043;41.766;26.204;2023-05-09T12:32:33;101457.16;;;18.21;64.33
10008;BME280;5043;41.766;26.204;2023-05-09T12:35:02;101452.09;;;18.27;64.86
10008;BME280;5043;41.766;26.204;2023-05-09T12:37:30;101401.06;;;18.11;65.62
10008;BME280;5043;41.766;26.204;2023-05-09T12:40:08;101446.88;;;18.35;65.12
10008;BME280;5043;41.766;26.204;2023-05-09T12:42:35;101448.13;;;18.41;65.37
10008;BME280;5043;41.766;26.204;2023-05-09T12:45:01;101446.88;;;18.54;64.92
10008;BME280;5043;41.766;26.204;2023-05-09T12:47:29;101450.78;;;18.70;64.28
10008;BME280;5043;41.766;26.204;2023-05-09T12:49:59;101443.75;;;18.69;64.39
10008;BME280;5043;41.766;26.204;2023-05-09T12:52:36;101445.16;;;18.82;62.70
10008;BME280;5043;41.766;26.204;2023-05-09T12:55:08;101445.59;;;18.78;62.44
10008;BME280;5043;41.766;26.204;2023-05-09T12:57:35;101437.69;;;18.76;62.07
10008;BME280;5043;41.766;26.204;2023-05-09T13:00:04;101439.38;;;18.87;61.16
10008;BME280;5043;41.766;26.204;2023-05-09T13:02:34;101424.03;;;18.79;59.03